sensor_id;sensor_type;location;lat;lon;timestamp;P1;durP1;ratioP1;P2;durP2;ratioP2
47844;SDS011;33605;48.822;8.796;2023-01-04T00:01:01;9.60;;;6.70;;
47844;SDS011;33605;48.822;8.796;2023-01-04T00:03:28;6.17;;;5.40;;
47844;SDS011;33605;48.822;8.796;2023-01-04T00:05:56;6.27;;;5.67;;
47844;SDS011;33605;48.822;8.796;2023-01-04T00:08:22;6.60;;;5.80;;
47844;SDS011;33605;48.822;8.796;2023-01-04T00:10:48;7.90;;;5.70;;
47844;SDS011;33605;48.822;8.796;2023-01-04T00:13:14;10.33;;;6.60;;
47844;SDS011;33605;48.822;8.796;2023-01-04T00:15:39;6.37;;;5.70;;
47844;SDS011;33605;48.822;8.796;2023-01-04T00:18:05;7.67;;;5.47;;
47844;SDS011;33605;48.822;8.796;2023-01-04T00:20:30;8.80;;;6.90;;
47844;SDS011;33605;48.822;8.796;2023-01-04T00:22:56;10.17;;;6.20;;
47844;SDS011;33605;48.822;8.796;2023-01-04T00:25:22;8.23;;;6.90;;
47844;SDS011;33605;48.822;8.796;2023-01-04T00:27:51;9.00;;;6.57;;
47844;SDS011;33605;48.822;8.796;2023-01-04T00:30:17;5.67;;;5.17;;
47844;SDS011;33605;48.822;8.796;2023-01-04T00:32:43;8.13;;;5.43;;
47844;SDS011;33605;48.822;8.796;2023-01-04T00:35:11;6.70;;;5.50;;
47844;SDS011;33605;48.822;8.796;2023-01-04T00:37:36;7.77;;;6.07;;
47844;SDS011;33605;48.822;8.796;2023-01-04T00:40:02;8.17;;;5.53;;
47844;SDS011;33605;48.822;8.796;2023-01-04T00:42:28;8.10;;;5.93;;
47844;SDS011;33605;48.822;8.796;2023-01-04T00:44:54;8.30;;;6.40;;
47844;SDS011;33605;48.822;8.796;2023-01-04T00:47:19;5.67;;;5.07;;
47844;SDS011;33605;48.822;8.796;2023-01-04T00:49:46;8.67;;;5.70;;
47844;SDS011;33605;48.822;8.796;2023-01-04T00:52:11;10.20;;;5.97;;
47844;SDS011;33605;48.822;8.796;2023-01-04T00:54:37;10.20;;;5.70;;
47844;SDS011;33605;48.822;8.796;2023-01-04T00:57:03;5.90;;;5.20;;
47844;SDS011;33605;48.822;8.796;2023-01-04T00:59:29;7.00;;;5.87;;
47844;SDS011;33605;48.822;8.796;2023-01-04T01:01:55;7.53;;;5.50;;
47844;SDS011;33605;48.822;8.796;2023-01-04T01:04:21;7.80;;;5.20;;
47844;SDS011;33605;48.822;8.796;2023-01-04T01:06:48;5.87;;;4.90;;
47844;SDS011;33605;48.822;8.796;2023-01-04T01:09:14;5.77;;;4.97;;
47844;SDS011;33605;48.822;8.796;2023-01-04T01:11:40;8.60;;;5.63;;
47844;SDS011;33605;48.822;8.796;2023-01-04T01:14:07;7.40;;;5.40;;
47844;SDS011;33605;48.822;8.796;2023-01-04T01:16:36;7.93;;;5.20;;
47844;SDS011;33605;48.822;8.796;2023-01-04T01:19:02;7.40;;;5.30;;
47844;SDS011;33605;48.822;8.796;2023-01-04T01:21:27;7.03;;;4.63;;
47844;SDS011;33605;48.822;8.796;2023-01-04T01:23:54;5.40;;;4.90;;
47844;SDS011;33605;48.822;8.796;2023-01-04T01:26:20;6.30;;;4.90;;
47844;SDS011;33605;48.822;8.796;2023-01-04T01:28:47;5.53;;;4.77;;
47844;SDS011;33605;48.822;8.796;2023-01-04T01:31:18;5.27;;;4.50;;
47844;SDS011;33605;48.822;8.796;2023-01-04T01:33:46;5.67;;;5.07;;
47844;SDS011;33605;48.822;8.796;2023-01-04T01:36:14;8.10;;;4.67;;
47844;SDS011;33605;48.822;8.796;2023-01-04T01:38:40;6.20;;;4.13;;
47844;SDS011;33605;48.822;8.796;2023-01-04T01:41:07;5.63;;;4.60;;
47844;SDS011;33605;48.822;8.796;2023-01-04T01:43:58;4.30;;;3.90;;
47844;SDS011;33605;48.822;8.796;2023-01-04T01:46:26;9.10;;;4.67;;
47844;SDS011;33605;48.822;8.796;2023-01-04T01:49:04;6.00;;;4.13;;
47844;SDS011;33605;48.822;8.796;2023-01-04T01:51:37;3.87;;;3.53;;
47844;SDS011;33605;48.822;8.796;2023-01-04T01:54:05;7.50;;;3.87;;
47844;SDS011;33605;48.822;8.796;2023-01-04T01:56:37;4.53;;;3.93;;
47844;SDS011;33605;48.822;8.796;2023-01-04T01:59:04;4.80;;;3.87;;
47844;SDS011;33605;48.822;8.796;2023-01-04T02:01:33;5.17;;;4.50;;
47844;SDS011;33605;48.822;8.796;2023-01-04T02:03:58;4.87;;;4.10;;
47844;SDS011;33605;48.822;8.796;2023-01-04T02:06:26;5.47;;;4.20;;
47844;SDS011;33605;48.822;8.796;2023-01-04T02:08:55;4.10;;;3.70;;
47844;SDS011;33605;48.822;8.796;2023-01-04T02:11:21;4.50;;;3.80;;
47844;SDS011;33605;48.822;8.796;2023-01-04T02:13:47;4.80;;;4.30;;
47844;SDS011;33605;48.822;8.796;2023-01-04T02:31:32;4.60;;;4.07;;
47844;SDS011;33605;48.822;8.796;2023-01-04T02:36:32;5.30;;;3.97;;
47844;SDS011;33605;48.822;8.796;2023-01-04T02:39:12;5.70;;;4.50;;
47844;SDS011;33605;48.822;8.796;2023-01-04T02:41:52;5.33;;;4.10;;
47844;SDS011;33605;48.822;8.796;2023-01-04T02:44:24;5.93;;;3.87;;
47844;SDS011;33605;48.822;8.796;2023-01-04T02:47:15;4.83;;;3.57;;
47844;SDS011;33605;48.822;8.796;2023-01-04T02:53:05;4.33;;;3.80;;
47844;SDS011;33605;48.822;8.796;2023-01-04T02:55:59;3.60;;;3.30;;
47844;SDS011;33605;48.822;8.796;2023-01-04T02:58:38;4.07;;;3.67;;
47844;SDS011;33605;48.822;8.796;2023-01-04T03:04:39;5.03;;;4.30;;
47844;SDS011;33605;48.822;8.796;2023-01-04T03:07:33;3.90;;;3.30;;
47844;SDS011;33605;48.822;8.796;2023-01-04T03:12:51;4.17;;;3.77;;
47844;SDS011;33605;48.822;8.796;2023-01-04T03:15:22;3.83;;;3.30;;
47844;SDS011;33605;48.822;8.796;2023-01-04T03:17:56;4.30;;;3.90;;
47844;SDS011;33605;48.822;8.796;2023-01-04T03:20:27;4.00;;;3.40;;
47844;SDS011;33605;48.822;8.796;2023-01-04T03:22:56;4.07;;;3.53;;
47844;SDS011;33605;48.822;8.796;2023-01-04T03:25:49;3.60;;;3.30;;
47844;SDS011;33605;48.822;8.796;2023-01-04T03:28:42;3.83;;;3.07;;
47844;SDS011;33605;48.822;8.796;2023-01-04T03:34:20;3.87;;;3.43;;
47844;SDS011;33605;48.822;8.796;2023-01-04T03:37:19;3.53;;;3.23;;
47844;SDS011;33605;48.822;8.796;2023-01-04T03:43:08;4.10;;;2.97;;
47844;SDS011;33605;48.822;8.796;2023-01-04T03:46:16;7.03;;;3.53;;
47844;SDS011;33605;48.822;8.796;2023-01-04T03:49:17;3.50;;;3.20;;
47844;SDS011;33605;48.822;8.796;2023-01-04T03:51:52;4.00;;;3.60;;
47844;SDS011;33605;48.822;8.796;2023-01-04T03:54:32;3.63;;;3.20;;
47844;SDS011;33605;48.822;8.796;2023-01-04T03:57:01;2.73;;;2.40;;
47844;SDS011;33605;48.822;8.796;2023-01-04T03:59:28;3.40;;;2.63;;
47844;SDS011;33605;48.822;8.796;2023-01-04T04:01:54;2.80;;;2.43;;
47844;SDS011;33605;48.822;8.796;2023-01-04T04:04:20;2.73;;;2.53;;
47844;SDS011;33605;48.822;8.796;2023-01-04T04:07:05;3.43;;;2.77;;
47844;SDS011;33605;48.822;8.796;2023-01-04T04:09:49;5.00;;;2.50;;
47844;SDS011;33605;48.822;8.796;2023-01-04T04:12:14;3.23;;;2.93;;
47844;SDS011;33605;48.822;8.796;2023-01-04T04:14:40;4.93;;;2.40;;
47844;SDS011;33605;48.822;8.796;2023-01-04T04:17:06;2.53;;;2.30;;
47844;SDS011;33605;48.822;8.796;2023-01-04T04:19:31;2.60;;;2.40;;
47844;SDS011;33605;48.822;8.796;2023-01-04T04:21:57;2.30;;;2.10;;
47844;SDS011;33605;48.822;8.796;2023-01-04T04:24:23;2.50;;;2.30;;
47844;SDS011;33605;48.822;8.796;2023-01-04T04:26:51;2.80;;;2.60;;
47844;SDS011;33605;48.822;8.796;2023-01-04T04:29:21;2.90;;;2.60;;
47844;SDS011;33605;48.822;8.796;2023-01-04T04:31:47;2.83;;;2.50;;
47844;SDS011;33605;48.822;8.796;2023-01-04T04:34:13;3.93;;;2.87;;
47844;SDS011;33605;48.822;8.796;2023-01-04T04:36:39;2.20;;;2.00;;
47844;SDS011;33605;48.822;8.796;2023-01-04T04:39:05;2.60;;;2.40;;
47844;SDS011;33605;48.822;8.796;2023-01-04T04:41:30;2.57;;;2.37;;
47844;SDS011;33605;48.822;8.796;2023-01-04T04:44:02;3.20;;;2.40;;
47844;SDS011;33605;48.822;8.796;2023-01-04T04:46:39;2.40;;;2.13;;
47844;SDS011;33605;48.822;8.796;2023-01-04T04:49:05;2.13;;;1.93;;
47844;SDS011;33605;48.822;8.796;2023-01-04T04:51:32;2.20;;;2.00;;
47844;SDS011;33605;48.822;8.796;2023-01-04T04:53:57;2.33;;;2.13;;
47844;SDS011;33605;48.822;8.796;2023-01-04T04:56:23;1.80;;;1.70;;
47844;SDS011;33605;48.822;8.796;2023-01-04T04:58:49;2.10;;;2.00;;
47844;SDS011;33605;48.822;8.796;2023-01-04T05:01:15;2.93;;;2.67;;
47844;SDS011;33605;48.822;8.796;2023-01-04T05:03:41;2.20;;;2.03;;
47844;SDS011;33605;48.822;8.796;2023-01-04T05:06:07;2.20;;;2.00;;
47844;SDS011;33605;48.822;8.796;2023-01-04T05:08:32;2.60;;;2.00;;
47844;SDS011;33605;48.822;8.796;2023-01-04T05:10:58;2.30;;;2.10;;
47844;SDS011;33605;48.822;8.796;2023-01-04T05:13:24;2.23;;;2.03;;
47844;SDS011;33605;48.822;8.796;2023-01-04T05:15:50;2.27;;;2.07;;
47844;SDS011;33605;48.822;8.796;2023-01-04T05:18:18;2.50;;;2.30;;
47844;SDS011;33605;48.822;8.796;2023-01-04T05:20:45;2.43;;;2.17;;
47844;SDS011;33605;48.822;8.796;2023-01-04T05:23:12;2.90;;;2.10;;
47844;SDS011;33605;48.822;8.796;2023-01-04T05:25:38;2.33;;;2.07;;
47844;SDS011;33605;48.822;8.796;2023-01-04T05:28:05;2.40;;;2.17;;
47844;SDS011;33605;48.822;8.796;2023-01-04T05:30:31;2.30;;;2.10;;
47844;SDS011;33605;48.822;8.796;2023-01-04T05:33:16;3.23;;;2.03;;
47844;SDS011;33605;48.822;8.796;2023-01-04T05:35:52;2.13;;;2.03;;
47844;SDS011;33605;48.822;8.796;2023-01-04T05:38:19;2.20;;;1.70;;
47844;SDS011;33605;48.822;8.796;2023-01-04T05:40:46;2.20;;;2.00;;
47844;SDS011;33605;48.822;8.796;2023-01-04T05:43:12;3.50;;;2.00;;
47844;SDS011;33605;48.822;8.796;2023-01-04T05:45:39;3.20;;;1.80;;
47844;SDS011;33605;48.822;8.796;2023-01-04T05:48:07;2.30;;;2.10;;
47844;SDS011;33605;48.822;8.796;2023-01-04T05:50:33;2.10;;;1.90;;
47844;SDS011;33605;48.822;8.796;2023-01-04T05:52:58;2.77;;;1.80;;
47844;SDS011;33605;48.822;8.796;2023-01-04T05:55:24;2.30;;;1.60;;
47844;SDS011;33605;48.822;8.796;2023-01-04T05:57:50;4.60;;;1.80;;
47844;SDS011;33605;48.822;8.796;2023-01-04T06:00:16;1.80;;;1.70;;
47844;SDS011;33605;48.822;8.796;2023-01-04T06:02:42;1.80;;;1.67;;
47844;SDS011;33605;48.822;8.796;2023-01-04T06:05:08;1.93;;;1.60;;
47844;SDS011;33605;48.822;8.796;2023-01-04T06:07:34;1.70;;;1.60;;
47844;SDS011;33605;48.822;8.796;2023-01-04T06:10:01;2.57;;;2.10;;
47844;SDS011;33605;48.822;8.796;2023-01-04T06:12:26;1.90;;;1.73;;
47844;SDS011;33605;48.822;8.796;2023-01-04T06:14:52;1.73;;;1.63;;
47844;SDS011;33605;48.822;8.796;2023-01-04T06:17:18;3.57;;;2.07;;
47844;SDS011;33605;48.822;8.796;2023-01-04T06:19:43;1.70;;;1.60;;
47844;SDS011;33605;48.822;8.796;2023-01-04T06:22:09;3.60;;;1.80;;
47844;SDS011;33605;48.822;8.796;2023-01-04T06:24:35;3.00;;;1.73;;
47844;SDS011;33605;48.822;8.796;2023-01-04T06:27:01;1.60;;;1.50;;
47844;SDS011;33605;48.822;8.796;2023-01-04T06:29:27;4.43;;;1.60;;
47844;SDS011;33605;48.822;8.796;2023-01-04T06:31:53;3.43;;;1.87;;
47844;SDS011;33605;48.822;8.796;2023-01-04T06:34:18;3.00;;;1.70;;
47844;SDS011;33605;48.822;8.796;2023-01-04T06:36:44;1.93;;;1.53;;
47844;SDS011;33605;48.822;8.796;2023-01-04T06:39:10;5.37;;;1.50;;
47844;SDS011;33605;48.822;8.796;2023-01-04T06:41:35;1.80;;;1.70;;
47844;SDS011;33605;48.822;8.796;2023-01-04T06:44:01;1.67;;;1.57;;
47844;SDS011;33605;48.822;8.796;2023-01-04T06:46:27;1.77;;;1.67;;
47844;SDS011;33605;48.822;8.796;2023-01-04T06:48:53;1.90;;;1.80;;
47844;SDS011;33605;48.822;8.796;2023-01-04T06:51:19;1.80;;;1.70;;
47844;SDS011;33605;48.822;8.796;2023-01-04T06:53:45;1.80;;;1.67;;
47844;SDS011;33605;48.822;8.796;2023-01-04T06:56:11;1.60;;;1.50;;
47844;SDS011;33605;48.822;8.796;2023-01-04T06:58:36;3.33;;;1.60;;
47844;SDS011;33605;48.822;8.796;2023-01-04T07:01:02;4.40;;;1.97;;
47844;SDS011;33605;48.822;8.796;2023-01-04T07:03:28;1.87;;;1.60;;
47844;SDS011;33605;48.822;8.796;2023-01-04T07:05:54;1.43;;;1.33;;
47844;SDS011;33605;48.822;8.796;2023-01-04T07:08:20;2.60;;;1.60;;
47844;SDS011;33605;48.822;8.796;2023-01-04T07:10:45;1.70;;;1.60;;
47844;SDS011;33605;48.822;8.796;2023-01-04T07:13:11;3.73;;;1.70;;
47844;SDS011;33605;48.822;8.796;2023-01-04T07:15:38;1.53;;;1.43;;
47844;SDS011;33605;48.822;8.796;2023-01-04T07:18:03;1.90;;;1.63;;
47844;SDS011;33605;48.822;8.796;2023-01-04T07:20:29;2.10;;;1.40;;
47844;SDS011;33605;48.822;8.796;2023-01-04T07:22:55;2.57;;;1.37;;
47844;SDS011;33605;48.822;8.796;2023-01-04T07:25:20;3.00;;;2.60;;
47844;SDS011;33605;48.822;8.796;2023-01-04T07:27:55;5.03;;;4.37;;
47844;SDS011;33605;48.822;8.796;2023-01-04T07:30:21;4.80;;;2.90;;
47844;SDS011;33605;48.822;8.796;2023-01-04T07:32:48;4.50;;;2.63;;
47844;SDS011;33605;48.822;8.796;2023-01-04T07:35:15;5.33;;;2.00;;
47844;SDS011;33605;48.822;8.796;2023-01-04T07:37:41;1.93;;;1.73;;
47844;SDS011;33605;48.822;8.796;2023-01-04T07:40:07;3.37;;;1.70;;
47844;SDS011;33605;48.822;8.796;2023-01-04T07:42:34;1.57;;;1.47;;
47844;SDS011;33605;48.822;8.796;2023-01-04T07:45:00;2.23;;;1.77;;
47844;SDS011;33605;48.822;8.796;2023-01-04T07:47:26;1.77;;;1.40;;
47844;SDS011;33605;48.822;8.796;2023-01-04T07:49:52;1.80;;;1.70;;
47844;SDS011;33605;48.822;8.796;2023-01-04T07:52:18;1.87;;;1.47;;
47844;SDS011;33605;48.822;8.796;2023-01-04T07:54:43;1.63;;;1.50;;
47844;SDS011;33605;48.822;8.796;2023-01-04T07:57:09;1.50;;;1.40;;
47844;SDS011;33605;48.822;8.796;2023-01-04T07:59:35;5.67;;;1.90;;
47844;SDS011;33605;48.822;8.796;2023-01-04T08:02:00;1.50;;;1.30;;
47844;SDS011;33605;48.822;8.796;2023-01-04T08:04:26;2.00;;;1.70;;
47844;SDS011;33605;48.822;8.796;2023-01-04T08:06:52;3.47;;;1.70;;
47844;SDS011;33605;48.822;8.796;2023-01-04T08:09:18;2.07;;;1.73;;
47844;SDS011;33605;48.822;8.796;2023-01-04T08:11:44;3.33;;;1.50;;
47844;SDS011;33605;48.822;8.796;2023-01-04T08:14:11;1.60;;;1.30;;
47844;SDS011;33605;48.822;8.796;2023-01-04T08:16:38;3.13;;;1.50;;
47844;SDS011;33605;48.822;8.796;2023-01-04T08:19:06;1.50;;;1.37;;
47844;SDS011;33605;48.822;8.796;2023-01-04T08:21:33;1.93;;;1.20;;
47844;SDS011;33605;48.822;8.796;2023-01-04T08:23:59;4.60;;;1.70;;
47844;SDS011;33605;48.822;8.796;2023-01-04T08:26:26;1.53;;;1.30;;
47844;SDS011;33605;48.822;8.796;2023-01-04T08:28:52;4.67;;;1.60;;
47844;SDS011;33605;48.822;8.796;2023-01-04T08:31:23;2.50;;;1.40;;
47844;SDS011;33605;48.822;8.796;2023-01-04T08:33:49;2.40;;;1.37;;
47844;SDS011;33605;48.822;8.796;2023-01-04T08:36:19;1.23;;;1.13;;
47844;SDS011;33605;48.822;8.796;2023-01-04T08:38:46;1.60;;;1.40;;
47844;SDS011;33605;48.822;8.796;2023-01-04T08:41:12;2.27;;;1.43;;
47844;SDS011;33605;48.822;8.796;2023-01-04T08:43:39;1.50;;;1.40;;
47844;SDS011;33605;48.822;8.796;2023-01-04T08:46:05;4.17;;;1.27;;
47844;SDS011;33605;48.822;8.796;2023-01-04T08:48:31;1.60;;;1.50;;
47844;SDS011;33605;48.822;8.796;2023-01-04T08:50:58;4.30;;;1.30;;
47844;SDS011;33605;48.822;8.796;2023-01-04T08:53:24;1.50;;;1.40;;
47844;SDS011;33605;48.822;8.796;2023-01-04T08:55:50;2.00;;;1.30;;
47844;SDS011;33605;48.822;8.796;2023-01-04T08:58:17;1.57;;;1.30;;
47844;SDS011;33605;48.822;8.796;2023-01-04T09:00:43;3.87;;;1.50;;
47844;SDS011;33605;48.822;8.796;2023-01-04T09:03:09;2.23;;;1.60;;
47844;SDS011;33605;48.822;8.796;2023-01-04T09:05:35;1.50;;;1.40;;
47844;SDS011;33605;48.822;8.796;2023-01-04T09:08:01;2.40;;;1.50;;
47844;SDS011;33605;48.822;8.796;2023-01-04T09:10:27;1.97;;;1.80;;
47844;SDS011;33605;48.822;8.796;2023-01-04T09:12:53;2.17;;;1.40;;
47844;SDS011;33605;48.822;8.796;2023-01-04T09:15:19;2.63;;;1.50;;
47844;SDS011;33605;48.822;8.796;2023-01-04T09:17:46;2.10;;;1.60;;
47844;SDS011;33605;48.822;8.796;2023-01-04T09:20:13;1.40;;;1.30;;
47844;SDS011;33605;48.822;8.796;2023-01-04T09:22:39;1.60;;;1.40;;
47844;SDS011;33605;48.822;8.796;2023-01-04T09:25:05;2.03;;;1.60;;
47844;SDS011;33605;48.822;8.796;2023-01-04T09:27:32;1.40;;;1.30;;
47844;SDS011;33605;48.822;8.796;2023-01-04T09:29:58;1.53;;;1.20;;
47844;SDS011;33605;48.822;8.796;2023-01-04T09:32:24;2.53;;;1.40;;
47844;SDS011;33605;48.822;8.796;2023-01-04T09:34:50;3.07;;;1.53;;
47844;SDS011;33605;48.822;8.796;2023-01-04T09:37:16;4.30;;;1.60;;
47844;SDS011;33605;48.822;8.796;2023-01-04T09:39:42;1.33;;;1.23;;
47844;SDS011;33605;48.822;8.796;2023-01-04T09:42:29;2.83;;;1.33;;
47844;SDS011;33605;48.822;8.796;2023-01-04T09:44:57;1.70;;;1.60;;
47844;SDS011;33605;48.822;8.796;2023-01-04T09:47:38;2.40;;;1.53;;
47844;SDS011;33605;48.822;8.796;2023-01-04T09:50:14;3.33;;;1.57;;
47844;SDS011;33605;48.822;8.796;2023-01-04T09:52:43;3.50;;;1.67;;
47844;SDS011;33605;48.822;8.796;2023-01-04T09:58:11;1.57;;;1.40;;
47844;SDS011;33605;48.822;8.796;2023-01-04T10:00:43;1.90;;;1.30;;
47844;SDS011;33605;48.822;8.796;2023-01-04T10:03:17;1.30;;;1.20;;
47844;SDS011;33605;48.822;8.796;2023-01-04T10:05:45;3.07;;;1.70;;
47844;SDS011;33605;48.822;8.796;2023-01-04T10:08:15;2.50;;;1.50;;
47844;SDS011;33605;48.822;8.796;2023-01-04T10:13:17;2.87;;;1.50;;
47844;SDS011;33605;48.822;8.796;2023-01-04T10:18:36;2.47;;;1.43;;
47844;SDS011;33605;48.822;8.796;2023-01-04T10:23:44;1.73;;;1.63;;
47844;SDS011;33605;48.822;8.796;2023-01-04T10:26:16;2.80;;;1.77;;
47844;SDS011;33605;48.822;8.796;2023-01-04T10:28:55;3.90;;;1.70;;
47844;SDS011;33605;48.822;8.796;2023-01-04T10:31:30;2.27;;;1.60;;
47844;SDS011;33605;48.822;8.796;2023-01-04T10:34:03;1.93;;;1.40;;
47844;SDS011;33605;48.822;8.796;2023-01-04T10:36:31;2.90;;;1.87;;
47844;SDS011;33605;48.822;8.796;2023-01-04T10:38:58;2.50;;;1.60;;
47844;SDS011;33605;48.822;8.796;2023-01-04T10:41:25;3.23;;;1.60;;
47844;SDS011;33605;48.822;8.796;2023-01-04T10:44:07;3.03;;;1.20;;
47844;SDS011;33605;48.822;8.796;2023-01-04T10:46:41;1.40;;;1.30;;
47844;SDS011;33605;48.822;8.796;2023-01-04T10:51:45;1.63;;;1.30;;
47844;SDS011;33605;48.822;8.796;2023-01-04T10:54:15;1.97;;;1.40;;
47844;SDS011;33605;48.822;8.796;2023-01-04T11:01:54;1.77;;;1.60;;
47844;SDS011;33605;48.822;8.796;2023-01-04T11:04:36;3.13;;;1.50;;
47844;SDS011;33605;48.822;8.796;2023-01-04T11:07:05;5.80;;;1.40;;
47844;SDS011;33605;48.822;8.796;2023-01-04T11:09:43;2.87;;;1.77;;
47844;SDS011;33605;48.822;8.796;2023-01-04T11:12:12;1.83;;;1.40;;
47844;SDS011;33605;48.822;8.796;2023-01-04T11:14:39;1.60;;;1.50;;
47844;SDS011;33605;48.822;8.796;2023-01-04T11:17:06;2.30;;;1.30;;
47844;SDS011;33605;48.822;8.796;2023-01-04T11:19:33;1.60;;;1.30;;
47844;SDS011;33605;48.822;8.796;2023-01-04T11:22:03;1.40;;;1.30;;
47844;SDS011;33605;48.822;8.796;2023-01-04T11:24:30;5.30;;;1.57;;
47844;SDS011;33605;48.822;8.796;2023-01-04T11:26:57;2.93;;;1.53;;
47844;SDS011;33605;48.822;8.796;2023-01-04T11:31:55;1.50;;;1.30;;
47844;SDS011;33605;48.822;8.796;2023-01-04T11:37:21;6.27;;;2.40;;
47844;SDS011;33605;48.822;8.796;2023-01-04T11:39:47;1.30;;;1.20;;
47844;SDS011;33605;48.822;8.796;2023-01-04T11:42:18;1.60;;;1.50;;
47844;SDS011;33605;48.822;8.796;2023-01-04T11:44:45;1.70;;;1.40;;
47844;SDS011;33605;48.822;8.796;2023-01-04T11:47:22;2.90;;;1.20;;
47844;SDS011;33605;48.822;8.796;2023-01-04T11:49:49;1.47;;;1.37;;
47844;SDS011;33605;48.822;8.796;2023-01-04T11:54:50;3.40;;;1.70;;
47844;SDS011;33605;48.822;8.796;2023-01-04T11:57:16;1.20;;;1.10;;
47844;SDS011;33605;48.822;8.796;2023-01-04T11:59:43;1.20;;;1.10;;
47844;SDS011;33605;48.822;8.796;2023-01-04T12:02:29;1.83;;;1.33;;
47844;SDS011;33605;48.822;8.796;2023-01-04T12:04:55;1.40;;;1.30;;
47844;SDS011;33605;48.822;8.796;2023-01-04T12:07:31;5.67;;;1.57;;
47844;SDS011;33605;48.822;8.796;2023-01-04T12:09:58;2.83;;;1.80;;
47844;SDS011;33605;48.822;8.796;2023-01-04T12:12:28;1.63;;;1.27;;
47844;SDS011;33605;48.822;8.796;2023-01-04T12:14:55;2.03;;;1.50;;
47844;SDS011;33605;48.822;8.796;2023-01-04T12:17:22;2.20;;;1.70;;
47844;SDS011;33605;48.822;8.796;2023-01-04T12:19:53;2.03;;;1.37;;
47844;SDS011;33605;48.822;8.796;2023-01-04T12:22:38;1.50;;;1.40;;
47844;SDS011;33605;48.822;8.796;2023-01-04T12:25:07;2.60;;;1.50;;
47844;SDS011;33605;48.822;8.796;2023-01-04T12:27:34;1.53;;;1.43;;
47844;SDS011;33605;48.822;8.796;2023-01-04T12:30:01;2.07;;;1.87;;
47844;SDS011;33605;48.822;8.796;2023-01-04T12:34:54;2.03;;;1.40;;
47844;SDS011;33605;48.822;8.796;2023-01-04T12:45:39;2.23;;;1.30;;
47844;SDS011;33605;48.822;8.796;2023-01-04T12:51:19;2.13;;;1.40;;
47844;SDS011;33605;48.822;8.796;2023-01-04T12:53:56;2.83;;;1.80;;
47844;SDS011;33605;48.822;8.796;2023-01-04T12:56:22;2.13;;;1.83;;
47844;SDS011;33605;48.822;8.796;2023-01-04T12:59:04;2.70;;;1.90;;
47844;SDS011;33605;48.822;8.796;2023-01-04T13:01:31;2.53;;;1.47;;
47844;SDS011;33605;48.822;8.796;2023-01-04T13:03:59;2.07;;;1.50;;
47844;SDS011;33605;48.822;8.796;2023-01-04T13:06:25;3.00;;;1.57;;
47844;SDS011;33605;48.822;8.796;2023-01-04T13:08:52;1.60;;;1.50;;
47844;SDS011;33605;48.822;8.796;2023-01-04T13:16:47;1.37;;;1.20;;
47844;SDS011;33605;48.822;8.796;2023-01-04T13:19:18;1.67;;;1.20;;
47844;SDS011;33605;48.822;8.796;2023-01-04T13:21:45;1.37;;;1.13;;
47844;SDS011;33605;48.822;8.796;2023-01-04T13:26:41;1.43;;;1.10;;
47844;SDS011;33605;48.822;8.796;2023-01-04T13:32:01;1.40;;;1.23;;
47844;SDS011;33605;48.822;8.796;2023-01-04T13:36:54;2.17;;;1.50;;
47844;SDS011;33605;48.822;8.796;2023-01-04T13:39:21;1.50;;;1.40;;
47844;SDS011;33605;48.822;8.796;2023-01-04T13:41:47;2.63;;;1.47;;
47844;SDS011;33605;48.822;8.796;2023-01-04T13:44:24;1.67;;;1.40;;
47844;SDS011;33605;48.822;8.796;2023-01-04T13:46:52;1.27;;;1.07;;
47844;SDS011;33605;48.822;8.796;2023-01-04T13:49:19;1.37;;;1.27;;
47844;SDS011;33605;48.822;8.796;2023-01-04T13:51:45;1.73;;;1.03;;
47844;SDS011;33605;48.822;8.796;2023-01-04T13:54:21;1.20;;;1.10;;
47844;SDS011;33605;48.822;8.796;2023-01-04T13:56:47;1.40;;;1.30;;
47844;SDS011;33605;48.822;8.796;2023-01-04T13:59:15;2.40;;;1.13;;
47844;SDS011;33605;48.822;8.796;2023-01-04T14:04:12;1.73;;;1.27;;
47844;SDS011;33605;48.822;8.796;2023-01-04T14:06:43;1.77;;;1.40;;
47844;SDS011;33605;48.822;8.796;2023-01-04T14:11:47;1.40;;;1.27;;
47844;SDS011;33605;48.822;8.796;2023-01-04T14:17:12;1.63;;;1.30;;
47844;SDS011;33605;48.822;8.796;2023-01-04T14:22:28;2.40;;;1.30;;
47844;SDS011;33605;48.822;8.796;2023-01-04T14:25:46;2.20;;;1.13;;
47844;SDS011;33605;48.822;8.796;2023-01-04T14:27:47;5.17;;;1.30;;
47844;SDS011;33605;48.822;8.796;2023-01-04T14:32:55;1.10;;;1.00;;
47844;SDS011;33605;48.822;8.796;2023-01-04T14:35:22;1.40;;;1.30;;
47844;SDS011;33605;48.822;8.796;2023-01-04T14:37:49;1.17;;;1.07;;
47844;SDS011;33605;48.822;8.796;2023-01-04T14:40:25;1.80;;;1.30;;
47844;SDS011;33605;48.822;8.796;2023-01-04T14:42:51;1.53;;;1.33;;
47844;SDS011;33605;48.822;8.796;2023-01-04T14:45:18;1.80;;;1.20;;
47844;SDS011;33605;48.822;8.796;2023-01-04T14:47:43;1.30;;;1.20;;
47844;SDS011;33605;48.822;8.796;2023-01-04T14:50:11;2.00;;;1.40;;
47844;SDS011;33605;48.822;8.796;2023-01-04T14:52:37;2.27;;;1.30;;
47844;SDS011;33605;48.822;8.796;2023-01-04T14:55:03;1.30;;;1.20;;
47844;SDS011;33605;48.822;8.796;2023-01-04T14:57:31;1.27;;;1.17;;
47844;SDS011;33605;48.822;8.796;2023-01-04T14:59:59;1.07;;;1.00;;
47844;SDS011;33605;48.822;8.796;2023-01-04T15:02:25;1.83;;;1.23;;
47844;SDS011;33605;48.822;8.796;2023-01-04T15:04:54;1.40;;;1.30;;
47844;SDS011;33605;48.822;8.796;2023-01-04T15:07:38;1.90;;;1.17;;
47844;SDS011;33605;48.822;8.796;2023-01-04T15:10:06;1.57;;;1.47;;
47844;SDS011;33605;48.822;8.796;2023-01-04T15:12:33;1.80;;;1.40;;
47844;SDS011;33605;48.822;8.796;2023-01-04T15:14:58;1.40;;;1.30;;
47844;SDS011;33605;48.822;8.796;2023-01-04T15:17:24;1.13;;;1.03;;
47844;SDS011;33605;48.822;8.796;2023-01-04T15:19:50;2.10;;;1.17;;
47844;SDS011;33605;48.822;8.796;2023-01-04T15:22:16;1.20;;;1.10;;
47844;SDS011;33605;48.822;8.796;2023-01-04T15:24:42;1.90;;;1.10;;
47844;SDS011;33605;48.822;8.796;2023-01-04T15:27:09;1.20;;;1.10;;
47844;SDS011;33605;48.822;8.796;2023-01-04T15:29:34;3.50;;;1.30;;
47844;SDS011;33605;48.822;8.796;2023-01-04T15:32:00;1.10;;;1.00;;
47844;SDS011;33605;48.822;8.796;2023-01-04T15:34:26;1.30;;;1.20;;
47844;SDS011;33605;48.822;8.796;2023-01-04T15:36:52;1.77;;;1.20;;
47844;SDS011;33605;48.822;8.796;2023-01-04T15:39:18;2.70;;;1.40;;
47844;SDS011;33605;48.822;8.796;2023-01-04T15:41:44;2.13;;;1.60;;
47844;SDS011;33605;48.822;8.796;2023-01-04T15:44:29;2.13;;;1.20;;
47844;SDS011;33605;48.822;8.796;2023-01-04T15:46:55;3.73;;;1.10;;
47844;SDS011;33605;48.822;8.796;2023-01-04T15:49:23;2.40;;;1.40;;
47844;SDS011;33605;48.822;8.796;2023-01-04T15:51:49;2.70;;;1.50;;
47844;SDS011;33605;48.822;8.796;2023-01-04T15:54:15;1.60;;;1.43;;
47844;SDS011;33605;48.822;8.796;2023-01-04T15:56:41;1.30;;;1.20;;
47844;SDS011;33605;48.822;8.796;2023-01-04T15:59:07;2.50;;;1.57;;
47844;SDS011;33605;48.822;8.796;2023-01-04T16:01:33;1.30;;;1.20;;
47844;SDS011;33605;48.822;8.796;2023-01-04T16:03:59;1.60;;;1.50;;
47844;SDS011;33605;48.822;8.796;2023-01-04T16:06:26;1.57;;;1.47;;
47844;SDS011;33605;48.822;8.796;2023-01-04T16:08:52;2.20;;;2.00;;
47844;SDS011;33605;48.822;8.796;2023-01-04T16:11:19;1.73;;;1.53;;
47844;SDS011;33605;48.822;8.796;2023-01-04T16:13:46;2.60;;;1.40;;
47844;SDS011;33605;48.822;8.796;2023-01-04T16:16:13;2.00;;;1.50;;
47844;SDS011;33605;48.822;8.796;2023-01-04T16:18:43;1.50;;;1.40;;
47844;SDS011;33605;48.822;8.796;2023-01-04T16:21:09;2.03;;;1.77;;
47844;SDS011;33605;48.822;8.796;2023-01-04T16:23:36;2.13;;;1.47;;
47844;SDS011;33605;48.822;8.796;2023-01-04T16:26:06;6.10;;;1.90;;
47844;SDS011;33605;48.822;8.796;2023-01-04T16:28:32;1.60;;;1.50;;
47844;SDS011;33605;48.822;8.796;2023-01-04T16:30:58;1.70;;;1.50;;
47844;SDS011;33605;48.822;8.796;2023-01-04T16:33:25;1.60;;;1.50;;
47844;SDS011;33605;48.822;8.796;2023-01-04T16:36:01;2.10;;;1.50;;
47844;SDS011;33605;48.822;8.796;2023-01-04T16:38:27;1.97;;;1.30;;